createdAt,value
2017-08-17T00:02:08.058Z,18.30
2017-08-17T00:04:36.213Z,18.20
2017-08-17T00:07:04.345Z,18.20
2017-08-17T00:09:32.508Z,18.10
2017-08-17T00:12:00.642Z,18.10
2017-08-17T00:14:28.771Z,18.10
2017-08-17T00:16:57.713Z,18.10
2017-08-17T00:19:25.842Z,18.00
2017-08-17T00:21:53.975Z,18.00
2017-08-17T00:24:22.139Z,18.00
2017-08-17T00:26:50.262Z,18.00
2017-08-17T00:29:18.429Z,18.00
2017-08-17T00:31:46.552Z,17.90
2017-08-17T00:34:14.690Z,17.90
2017-08-17T00:36:42.854Z,17.90
2017-08-17T00:39:10.991Z,17.90
2017-08-17T00:41:39.900Z,17.80
2017-08-17T00:44:08.053Z,17.80
2017-08-17T00:46:36.942Z,17.80
2017-08-17T00:49:05.858Z,17.80
2017-08-17T00:51:34.019Z,17.70
2017-08-17T00:54:02.904Z,17.70
2017-08-17T00:56:31.825Z,17.70
2017-08-17T00:58:59.954Z,17.70
2017-08-17T01:01:28.885Z,17.70
2017-08-17T01:03:57.005Z,17.60
2017-08-17T01:06:25.138Z,17.70
2017-08-17T01:08:53.313Z,17.60
2017-08-17T01:11:21.463Z,17.70
2017-08-17T01:13:49.635Z,17.70
2017-08-17T01:16:17.771Z,17.70
2017-08-17T01:18:46.675Z,17.60
2017-08-17T01:21:15.607Z,17.60
2017-08-17T01:23:43.738Z,17.60
2017-08-17T01:26:11.910Z,17.60
2017-08-17T01:28:40.811Z,17.50
2017-08-17T01:31:08.954Z,17.50
2017-08-17T01:33:37.890Z,17.50
2017-08-17T01:36:06.011Z,17.50
2017-08-17T01:38:34.165Z,17.50
2017-08-17T01:41:02.319Z,17.50
2017-08-17T01:43:30.460Z,17.40
2017-08-17T01:45:58.623Z,17.40
2017-08-17T01:48:26.754Z,17.40
2017-08-17T01:50:54.909Z,17.40
2017-08-17T01:53:23.045Z,17.40
2017-08-17T01:55:51.160Z,17.30
2017-08-17T01:58:19.326Z,17.30
2017-08-17T02:00:47.499Z,17.30
2017-08-17T02:03:15.675Z,17.30
2017-08-17T02:05:43.809Z,17.30
2017-08-17T02:08:11.952Z,17.20
2017-08-17T02:10:40.887Z,17.20
2017-08-17T02:13:09.022Z,17.20
2017-08-17T02:15:37.172Z,17.20
2017-08-17T02:18:06.061Z,17.10
2017-08-17T02:20:34.995Z,17.10
2017-08-17T02:23:03.113Z,17.10
2017-08-17T02:25:31.246Z,17.10
2017-08-17T02:27:59.411Z,17.10
2017-08-17T02:30:27.538Z,17.10
2017-08-17T02:32:56.460Z,17.10
2017-08-17T02:35:24.603Z,17.00
2017-08-17T02:37:53.493Z,17.00
2017-08-17T02:40:22.421Z,17.00
2017-08-17T02:42:50.536Z,17.00
2017-08-17T02:45:18.697Z,17.00
2017-08-17T02:47:46.827Z,17.00
2017-08-17T02:50:14.978Z,17.00
2017-08-17T02:52:43.868Z,17.00
2017-08-17T02:55:11.984Z,17.00
2017-08-17T02:57:40.151Z,17.00
2017-08-17T03:00:08.278Z,17.00
2017-08-17T03:02:37.199Z,17.00
2017-08-17T03:05:05.320Z,17.00
2017-08-17T03:07:33.484Z,17.00
2017-08-17T03:10:01.610Z,16.90
2017-08-17T03:12:29.795Z,16.90
2017-08-17T03:14:57.929Z,16.90
2017-08-17T03:17:26.045Z,16.90
2017-08-17T03:19:54.213Z,16.90
2017-08-17T03:22:22.359Z,16.90
2017-08-17T03:24:50.531Z,16.90
2017-08-17T03:27:18.666Z,16.90
2017-08-17T03:29:47.573Z,16.90
2017-08-17T03:32:16.500Z,16.90
2017-08-17T03:34:44.647Z,16.80
2017-08-17T03:37:12.773Z,16.80
2017-08-17T03:39:40.939Z,16.80
2017-08-17T03:42:09.075Z,16.80
2017-08-17T03:44:37.202Z,16.80
2017-08-17T03:47:06.131Z,16.80
2017-08-17T03:49:34.263Z,16.80
2017-08-17T03:52:03.198Z,16.80
2017-08-17T03:54:31.321Z,16.80
2017-08-17T03:56:59.444Z,16.80
2017-08-17T03:59:27.611Z,16.80
2017-08-17T04:01:55.746Z,16.80
2017-08-17T04:04:24.687Z,16.80
2017-08-17T04:06:52.819Z,16.80
2017-08-17T04:09:20.982Z,16.80
2017-08-17T04:11:49.111Z,16.80
2017-08-17T04:14:17.248Z,16.80
2017-08-17T04:16:45.399Z,16.70
2017-08-17T04:19:14.299Z,16.70
2017-08-17T04:21:42.443Z,16.70
2017-08-17T04:24:10.581Z,16.70
2017-08-17T04:26:38.753Z,16.70
2017-08-17T04:29:06.879Z,16.70
2017-08-17T04:31:35.014Z,16.70
2017-08-17T04:34:03.186Z,16.80
2017-08-17T04:36:31.325Z,16.80
2017-08-17T04:38:59.462Z,16.90
2017-08-17T04:41:27.613Z,16.90
2017-08-17T04:43:55.744Z,17.00
2017-08-17T04:46:23.927Z,17.00
2017-08-17T04:48:52.045Z,17.10
2017-08-17T04:51:20.939Z,17.20
2017-08-17T04:53:49.088Z,17.20
2017-08-17T04:59:57.046Z,17.30
2017-08-17T05:02:25.210Z,17.40
2017-08-17T05:04:53.354Z,17.40
2017-08-17T05:07:22.241Z,17.60
2017-08-17T05:09:50.400Z,17.50
2017-08-17T05:12:18.531Z,17.60
2017-08-17T05:14:46.693Z,17.70
2017-08-17T05:17:14.837Z,17.80
2017-08-17T05:19:43.747Z,17.90
2017-08-17T05:22:11.913Z,17.90
2017-08-17T05:24:40.043Z,18.00
2017-08-17T05:27:08.210Z,18.10
2017-08-17T05:29:36.339Z,18.10
2017-08-17T05:32:04.512Z,18.20
2017-08-17T05:34:32.643Z,18.20
2017-08-17T05:37:01.541Z,18.40
2017-08-17T05:39:29.721Z,18.30
2017-08-17T05:41:58.637Z,18.50
2017-08-17T05:44:26.822Z,18.50
2017-08-17T05:46:54.975Z,18.70
2017-08-17T05:49:23.216Z,19.00
2017-08-17T05:51:52.149Z,19.50
2017-08-17T05:54:20.291Z,19.50
2017-08-17T05:56:48.430Z,19.70
2017-08-17T05:59:16.634Z,19.80
2017-08-17T06:01:44.773Z,20.00
2017-08-17T06:04:13.334Z,20.00
2017-08-17T06:06:41.512Z,19.90
2017-08-17T06:09:09.678Z,20.00
2017-08-17T06:11:37.847Z,20.10
2017-08-17T06:14:05.996Z,20.40
2017-08-17T06:16:34.140Z,20.50
2017-08-17T06:19:03.124Z,21.00
2017-08-17T06:21:31.251Z,21.00
2017-08-17T06:23:59.391Z,21.30
2017-08-17T06:26:27.566Z,21.60
2017-08-17T06:28:55.708Z,21.80
2017-08-17T06:31:24.661Z,22.10
2017-08-17T06:33:52.854Z,22.10
2017-08-17T06:36:21.003Z,22.10
2017-08-17T06:38:49.133Z,22.10
2017-08-17T06:41:17.300Z,22.30
2017-08-17T06:43:46.199Z,22.60
2017-08-17T06:46:14.916Z,22.60
2017-08-17T06:48:43.051Z,22.70
2017-08-17T06:51:11.215Z,23.00
2017-08-17T06:53:40.120Z,23.30
2017-08-17T06:56:08.297Z,23.30
2017-08-17T06:58:36.426Z,23.90
2017-08-17T07:01:04.563Z,24.50
2017-08-17T07:03:32.724Z,25.00
2017-08-17T07:06:00.854Z,25.40
2017-08-17T07:08:29.740Z,26.00
2017-08-17T07:10:58.679Z,26.10
2017-08-17T07:13:26.796Z,26.10
2017-08-17T07:15:55.699Z,26.50
2017-08-17T07:18:24.619Z,26.70
2017-08-17T07:20:52.755Z,26.60
2017-08-17T07:23:21.685Z,27.10
2017-08-17T07:25:49.899Z,27.10
2017-08-17T07:28:18.052Z,27.30
2017-08-17T07:30:46.165Z,27.20
2017-08-17T07:33:15.434Z,26.90
2017-08-17T07:35:43.593Z,26.90
2017-08-17T07:38:11.751Z,26.70
2017-08-17T07:40:39.936Z,26.50
2017-08-17T07:43:08.062Z,26.20
2017-08-17T07:45:36.191Z,26.00
2017-08-17T07:48:04.375Z,25.90
2017-08-17T07:50:32.497Z,25.80
2017-08-17T07:53:00.685Z,25.70
2017-08-17T07:55:28.824Z,25.70
2017-08-17T07:57:56.964Z,25.90
2017-08-17T08:00:25.898Z,26.30
2017-08-17T08:02:54.025Z,26.30
2017-08-17T08:05:22.961Z,26.80
2017-08-17T08:07:51.189Z,26.80
2017-08-17T08:10:20.126Z,27.10
2017-08-17T08:12:48.247Z,27.10
2017-08-17T08:15:16.387Z,27.20
2017-08-17T08:17:44.560Z,27.30
2017-08-17T08:20:12.676Z,27.50
2017-08-17T08:22:41.561Z,27.80
2017-08-17T08:25:10.490Z,27.90
2017-08-17T08:27:38.626Z,27.80
2017-08-17T08:30:07.527Z,28.20
2017-08-17T08:32:35.704Z,28.20
2017-08-17T08:35:03.843Z,28.40
2017-08-17T08:37:31.983Z,28.50
2017-08-17T08:40:00.134Z,28.60
2017-08-17T08:42:28.255Z,28.70
2017-08-17T08:44:56.425Z,28.90
2017-08-17T08:47:24.546Z,29.00
2017-08-17T08:49:52.678Z,29.10
2017-08-17T08:52:21.606Z,29.40
2017-08-17T08:54:49.720Z,29.40
2017-08-17T08:57:17.854Z,29.50
2017-08-17T08:59:46.005Z,29.60
2017-08-17T09:02:14.145Z,29.70
2017-08-17T09:04:43.094Z,30.00
2017-08-17T09:07:11.239Z,30.00
2017-08-17T09:09:39.369Z,30.10
2017-08-17T09:12:07.523Z,30.20
2017-08-17T09:14:35.649Z,30.30
2017-08-17T09:17:03.799Z,30.40
2017-08-17T09:19:32.724Z,30.50
2017-08-17T09:22:00.843Z,30.40
2017-08-17T09:24:29.002Z,30.60
2017-08-17T09:26:57.243Z,30.70
2017-08-17T09:29:25.387Z,30.80
2017-08-17T09:31:54.311Z,31.00
2017-08-17T09:34:22.436Z,31.00
2017-08-17T09:36:51.794Z,31.00
2017-08-17T09:39:20.109Z,30.90
2017-08-17T09:41:49.170Z,31.10
2017-08-17T09:44:17.466Z,31.10
2017-08-17T09:46:45.733Z,31.20
2017-08-17T09:49:14.010Z,31.20
2017-08-17T09:51:42.147Z,31.30
2017-08-17T09:54:10.317Z,31.30
2017-08-17T09:56:38.441Z,31.40
2017-08-17T09:59:06.623Z,31.40
2017-08-17T10:01:35.531Z,31.50
2017-08-17T10:04:03.653Z,31.60
2017-08-17T10:06:31.812Z,31.60
2017-08-17T10:08:59.947Z,31.70
2017-08-17T10:11:28.087Z,31.70
2017-08-17T10:13:57.019Z,31.70
2017-08-17T10:16:25.138Z,31.70
2017-08-17T10:18:54.079Z,31.60
2017-08-17T10:21:22.225Z,31.60
2017-08-17T10:23:50.378Z,31.40
2017-08-17T10:26:19.294Z,31.20
2017-08-17T10:28:47.415Z,31.20
2017-08-17T10:31:15.592Z,31.10
2017-08-17T10:33:43.726Z,31.00
2017-08-17T10:36:11.854Z,31.00
2017-08-17T10:38:40.790Z,31.00
2017-08-17T10:41:08.935Z,30.90
2017-08-17T10:43:37.074Z,30.90
2017-08-17T10:46:05.248Z,31.00
2017-08-17T10:48:33.380Z,31.00
2017-08-17T10:51:01.538Z,31.00
2017-08-17T10:53:29.658Z,30.90
2017-08-17T10:55:57.793Z,30.90
2017-08-17T10:58:25.960Z,30.80
2017-08-17T11:00:54.109Z,30.70
2017-08-17T11:03:22.253Z,30.50
2017-08-17T11:05:50.444Z,30.30
2017-08-17T11:08:18.581Z,30.20
2017-08-17T11:10:46.772Z,30.10
2017-08-17T11:13:14.932Z,30.00
2017-08-17T11:15:43.071Z,29.90
2017-08-17T11:18:11.232Z,29.80
2017-08-17T11:20:39.368Z,29.70
2017-08-17T11:23:08.254Z,29.50
2017-08-17T11:25:37.184Z,29.40
2017-08-17T11:28:05.325Z,29.40
2017-08-17T11:30:33.456Z,29.30
2017-08-17T11:33:01.636Z,29.20
2017-08-17T11:35:29.771Z,29.20
2017-08-17T11:37:57.899Z,29.10
2017-08-17T11:40:26.838Z,29.00
2017-08-17T11:42:54.983Z,29.00
2017-08-17T11:45:23.137Z,28.90
2017-08-17T11:47:52.113Z,28.80
2017-08-17T11:50:21.045Z,28.80
2017-08-17T11:52:49.223Z,28.80
2017-08-17T11:55:17.355Z,28.80
2017-08-17T11:57:46.313Z,28.70
2017-08-17T12:00:14.454Z,28.60
2017-08-17T12:02:42.587Z,28.60
2017-08-17T12:05:11.532Z,28.50
2017-08-17T12:07:39.666Z,28.50
2017-08-17T12:10:07.807Z,28.50
2017-08-17T12:12:36.747Z,28.40
2017-08-17T12:15:04.885Z,28.40
2017-08-17T12:17:33.805Z,28.40
2017-08-17T12:20:01.943Z,28.40
2017-08-17T12:22:30.104Z,28.30
2017-08-17T12:24:59.006Z,28.30
2017-08-17T12:27:27.906Z,28.20
2017-08-17T12:29:56.077Z,28.20
2017-08-17T12:32:24.200Z,28.20
2017-08-17T12:34:52.340Z,28.20
2017-08-17T12:37:20.511Z,28.20
2017-08-17T12:39:48.638Z,28.20
2017-08-17T12:42:17.547Z,28.20
2017-08-17T12:44:45.728Z,28.20
2017-08-17T12:47:13.878Z,28.20
2017-08-17T12:49:42.773Z,28.20
2017-08-17T12:52:11.697Z,28.30
2017-08-17T12:54:39.835Z,28.20
2017-08-17T12:57:08.780Z,28.20
2017-08-17T12:59:36.917Z,28.20
2017-08-17T13:02:05.077Z,28.20
2017-08-17T13:04:33.202Z,28.20
2017-08-17T13:07:01.337Z,28.30
2017-08-17T13:09:29.503Z,28.20
2017-08-17T13:11:57.636Z,28.20
2017-08-17T13:14:26.564Z,28.20
2017-08-17T13:16:54.695Z,28.10
2017-08-17T13:19:22.849Z,28.10
2017-08-17T13:21:50.988Z,28.10
2017-08-17T13:24:19.170Z,28.10
2017-08-17T13:26:47.297Z,28.10
2017-08-17T13:29:16.196Z,28.10
2017-08-17T13:31:44.356Z,28.20
2017-08-17T13:34:13.259Z,28.20
2017-08-17T13:36:41.390Z,28.20
2017-08-17T13:39:09.541Z,28.20
2017-08-17T13:41:37.665Z,28.20
2017-08-17T13:44:05.832Z,28.30
2017-08-17T13:46:34.724Z,28.20
2017-08-17T13:49:02.894Z,28.20
2017-08-17T13:51:31.025Z,28.20
2017-08-17T13:53:59.157Z,28.20
2017-08-17T13:56:27.318Z,28.20
2017-08-17T13:58:55.447Z,28.20
2017-08-17T14:01:23.631Z,28.20
2017-08-17T14:03:52.525Z,28.00
2017-08-17T14:06:21.454Z,28.00
2017-08-17T14:08:49.585Z,27.90
2017-08-17T14:11:18.483Z,27.90
2017-08-17T14:13:46.747Z,27.90
2017-08-17T14:16:14.884Z,27.90
2017-08-17T14:18:43.041Z,27.90
2017-08-17T14:21:11.173Z,27.90
2017-08-17T14:23:40.072Z,28.00
2017-08-17T14:26:08.226Z,28.00
2017-08-17T14:28:37.132Z,28.00
2017-08-17T14:31:05.385Z,28.00
2017-08-17T14:33:33.504Z,28.00
2017-08-17T14:36:01.640Z,28.00
2017-08-17T14:38:30.561Z,28.00
2017-08-17T14:40:58.694Z,28.00
2017-08-17T14:43:27.621Z,27.90
2017-08-17T14:45:55.746Z,27.90
2017-08-17T14:48:23.918Z,27.90
2017-08-17T14:50:52.035Z,28.00
2017-08-17T14:53:20.159Z,28.00
2017-08-17T14:55:48.329Z,28.00
2017-08-17T14:58:16.475Z,28.00
2017-08-17T15:00:44.687Z,27.90
2017-08-17T15:03:12.823Z,27.90
2017-08-17T15:05:41.000Z,27.90
2017-08-17T15:08:09.134Z,27.90
2017-08-17T15:10:37.274Z,27.80
2017-08-17T15:13:06.200Z,27.70
2017-08-17T15:15:34.322Z,27.70
2017-08-17T15:18:02.491Z,27.60
2017-08-17T15:20:30.604Z,27.60
2017-08-17T15:22:58.738Z,27.60
2017-08-17T15:25:27.678Z,27.60
2017-08-17T15:27:55.798Z,27.60
2017-08-17T15:30:24.694Z,27.60
2017-08-17T15:32:53.627Z,27.50
2017-08-17T15:35:21.766Z,27.60
2017-08-17T15:37:50.691Z,27.50
2017-08-17T15:40:18.828Z,27.50
2017-08-17T15:42:46.963Z,27.50
2017-08-17T15:45:15.121Z,27.50
2017-08-17T15:47:43.251Z,27.50
2017-08-17T15:50:11.405Z,27.50
2017-08-17T15:52:40.306Z,27.30
2017-08-17T15:55:08.438Z,27.30
2017-08-17T15:57:36.604Z,27.30
2017-08-17T16:00:04.749Z,27.30
2017-08-17T16:02:32.922Z,27.30
2017-08-17T16:05:01.066Z,27.30
2017-08-17T16:07:29.234Z,27.20
2017-08-17T16:09:57.348Z,27.30
2017-08-17T16:12:25.470Z,27.30
2017-08-17T16:14:54.399Z,27.40
2017-08-17T16:17:22.521Z,27.40
2017-08-17T16:19:50.659Z,27.50
2017-08-17T16:22:18.835Z,27.50
2017-08-17T16:24:46.966Z,27.60
2017-08-17T16:27:15.097Z,27.60
2017-08-17T16:29:43.254Z,27.70
2017-08-17T16:32:11.376Z,27.60
2017-08-17T16:34:39.531Z,27.60
2017-08-17T16:37:08.417Z,27.50
2017-08-17T16:39:37.367Z,27.40
2017-08-17T16:42:05.485Z,27.40
2017-08-17T16:44:33.605Z,27.30
2017-08-17T16:47:01.763Z,27.20
2017-08-17T16:49:29.905Z,27.20
2017-08-17T16:51:58.096Z,27.10
2017-08-17T16:54:26.226Z,27.00
2017-08-17T16:56:55.134Z,26.80
2017-08-17T16:59:23.303Z,26.80
2017-08-17T17:01:51.439Z,26.70
2017-08-17T17:04:19.608Z,26.60
2017-08-17T17:06:47.740Z,26.50
2017-08-17T17:09:15.918Z,26.40
2017-08-17T17:11:44.050Z,26.30
2017-08-17T17:14:12.192Z,26.20
2017-08-17T17:16:40.362Z,26.20
2017-08-17T17:19:08.570Z,26.10
2017-08-17T17:21:37.476Z,25.90
2017-08-17T17:24:05.636Z,25.90
2017-08-17T17:26:33.759Z,25.80
2017-08-17T17:29:01.930Z,25.80
2017-08-17T17:31:30.066Z,25.70
2017-08-17T17:33:58.201Z,25.60
2017-08-17T17:36:27.137Z,25.50
2017-08-17T17:38:55.270Z,25.40
2017-08-17T17:41:24.212Z,25.30
2017-08-17T17:43:52.400Z,25.30
2017-08-17T17:46:20.546Z,25.30
2017-08-17T17:48:48.717Z,25.20
2017-08-17T17:51:16.847Z,25.10
2017-08-17T17:53:44.979Z,25.00
2017-08-17T17:56:13.137Z,24.90
2017-08-17T17:58:41.279Z,24.90
2017-08-17T18:01:09.447Z,24.80
2017-08-17T18:03:37.624Z,24.70
2017-08-17T18:06:05.783Z,24.70
2017-08-17T18:08:33.958Z,24.60
2017-08-17T18:11:02.864Z,24.40
2017-08-17T18:13:31.042Z,24.40
2017-08-17T18:15:59.173Z,24.30
2017-08-17T18:18:27.306Z,24.20
2017-08-17T18:20:55.465Z,24.10
2017-08-17T18:23:23.594Z,24.10
2017-08-17T18:25:52.494Z,23.90
2017-08-17T18:28:21.413Z,23.80
2017-08-17T18:30:49.539Z,23.80
2017-08-17T18:33:17.719Z,23.80
2017-08-17T18:35:46.610Z,23.70
2017-08-17T18:38:15.502Z,23.60
2017-08-17T18:40:44.426Z,23.60
2017-08-17T18:43:13.347Z,23.60
2017-08-17T18:45:41.508Z,23.50
2017-08-17T18:48:09.637Z,23.50
2017-08-17T18:50:37.767Z,23.40
2017-08-17T18:53:05.950Z,23.40
2017-08-17T18:55:34.833Z,23.30
2017-08-17T18:58:02.953Z,23.30
2017-08-17T19:00:31.127Z,23.20
2017-08-17T19:02:59.274Z,23.20
2017-08-17T19:05:27.439Z,23.10
2017-08-17T19:07:56.329Z,23.10
2017-08-17T19:10:24.464Z,23.00
2017-08-17T19:12:52.637Z,23.00
2017-08-17T19:15:20.778Z,22.90
2017-08-17T19:17:48.921Z,22.90
2017-08-17T19:20:17.081Z,22.90
2017-08-17T19:22:45.977Z,22.80
2017-08-17T19:25:14.159Z,22.80
2017-08-17T19:27:42.973Z,22.80
2017-08-17T19:30:11.107Z,22.70
2017-08-17T19:32:40.033Z,22.60
2017-08-17T19:35:08.172Z,22.60
2017-08-17T19:37:36.321Z,22.60
2017-08-17T19:40:04.473Z,22.50
2017-08-17T19:42:33.427Z,22.50
2017-08-17T19:45:01.589Z,22.40
2017-08-17T19:47:29.707Z,22.40
2017-08-17T19:49:57.851Z,22.40
2017-08-17T19:52:26.037Z,22.30
2017-08-17T19:54:54.165Z,22.30
2017-08-17T19:57:22.343Z,22.20
2017-08-17T19:59:50.488Z,22.20
2017-08-17T20:02:19.391Z,22.20
2017-08-17T20:04:47.566Z,22.20
2017-08-17T20:07:15.694Z,22.10
2017-08-17T20:09:43.837Z,22.10
2017-08-17T20:12:12.012Z,22.10
2017-08-17T20:14:40.146Z,22.10
2017-08-17T20:17:08.315Z,22.00
2017-08-17T20:19:36.470Z,22.00
2017-08-17T20:22:04.659Z,22.00
2017-08-17T20:24:33.562Z,21.90
2017-08-17T20:27:01.687Z,21.90
2017-08-17T20:29:29.868Z,21.90
2017-08-17T20:31:57.993Z,21.80
2017-08-17T20:34:26.114Z,21.80
2017-08-17T20:36:54.293Z,21.70
2017-08-17T20:39:23.181Z,21.60
2017-08-17T20:41:52.069Z,21.60
2017-08-17T20:44:21.003Z,21.60
2017-08-17T20:46:49.121Z,21.60
2017-08-17T20:49:17.292Z,21.50
2017-08-17T20:51:45.413Z,21.50
2017-08-17T20:54:13.570Z,21.50
2017-08-17T20:56:41.707Z,21.50
2017-08-17T20:59:09.838Z,21.40
2017-08-17T21:01:38.106Z,21.40
2017-08-17T21:04:06.237Z,21.40
2017-08-17T21:06:35.175Z,21.30
2017-08-17T21:09:03.329Z,21.30
2017-08-17T21:11:31.497Z,21.30
2017-08-17T21:13:59.636Z,21.20
2017-08-17T21:16:28.538Z,21.20
2017-08-17T21:18:57.473Z,21.10
2017-08-17T21:21:25.610Z,21.10
2017-08-17T21:23:53.775Z,21.10
2017-08-17T21:26:21.907Z,21.10
2017-08-17T21:28:50.038Z,21.10
2017-08-17T21:31:18.203Z,21.10
2017-08-17T21:33:46.343Z,21.00
2017-08-17T21:36:14.471Z,21.00
2017-08-17T21:38:42.620Z,21.00
2017-08-17T21:41:10.741Z,21.00
2017-08-17T21:43:38.893Z,20.90
2017-08-17T21:46:07.031Z,20.90
2017-08-17T21:48:35.200Z,20.90
2017-08-17T21:51:03.336Z,20.90
2017-08-17T21:53:31.453Z,20.80
2017-08-17T21:55:59.623Z,20.80
2017-08-17T21:58:27.771Z,20.80
2017-08-17T22:00:56.705Z,20.70
2017-08-17T22:03:24.847Z,20.70
2017-08-17T22:05:52.983Z,20.70
2017-08-17T22:08:21.148Z,20.70
2017-08-17T22:10:49.282Z,20.60
2017-08-17T22:13:17.409Z,20.60
2017-08-17T22:15:46.340Z,20.60
2017-08-17T22:18:14.472Z,20.60
2017-08-17T22:20:43.369Z,20.60
2017-08-17T22:23:12.538Z,20.60
2017-08-17T22:25:40.653Z,20.50
2017-08-17T22:28:08.805Z,20.50
2017-08-17T22:30:36.967Z,20.50
2017-08-17T22:33:05.878Z,20.50
2017-08-17T22:35:34.049Z,20.50
2017-08-17T22:38:02.165Z,20.40
2017-08-17T22:40:30.290Z,20.40
2017-08-17T22:42:58.455Z,20.40
2017-08-17T22:45:26.573Z,20.30
2017-08-17T22:47:54.747Z,20.30
2017-08-17T22:50:22.876Z,20.30
2017-08-17T22:52:51.001Z,20.30
2017-08-17T22:55:19.163Z,20.20
2017-08-17T22:57:47.288Z,20.20
2017-08-17T23:00:15.418Z,20.20
2017-08-17T23:02:43.573Z,20.10
2017-08-17T23:05:11.710Z,20.10
2017-08-17T23:07:39.834Z,20.10
2017-08-17T23:10:07.994Z,20.00
2017-08-17T23:12:36.135Z,20.00
2017-08-17T23:15:04.285Z,20.00
2017-08-17T23:17:32.405Z,19.90
2017-08-17T23:20:00.569Z,19.90
2017-08-17T23:22:28.684Z,19.90
2017-08-17T23:24:57.572Z,19.90
2017-08-17T23:27:26.503Z,19.80
2017-08-17T23:29:54.638Z,19.80
2017-08-17T23:32:23.549Z,19.70
2017-08-17T23:34:51.673Z,19.70
2017-08-17T23:37:20.624Z,19.70
2017-08-17T23:39:48.748Z,19.70
2017-08-17T23:42:17.686Z,19.60
2017-08-17T23:44:45.804Z,19.60
2017-08-17T23:47:13.923Z,19.60
2017-08-17T23:49:42.103Z,19.60
2017-08-17T23:52:10.228Z,19.60
2017-08-17T23:54:39.146Z,19.50
2017-08-17T23:57:07.304Z,19.50
2017-08-17T23:59:35.430Z,19.50
